createdAt,value
2023-05-15T00:02:58.861Z,6.4
2023-05-15T00:05:39.844Z,6.4
2023-05-15T00:08:10.423Z,6.3
2023-05-15T00:10:44.971Z,6.3
2023-05-15T00:13:12.532Z,6.3
2023-05-15T00:15:43.100Z,6.2
2023-05-15T00:18:23.844Z,6.2
2023-05-15T00:20:54.580Z,6.1
2023-05-15T00:23:25.151Z,6.1
2023-05-15T00:25:55.752Z,6.2
2023-05-15T00:28:26.379Z,6.2
2023-05-15T00:30:56.989Z,6.2
2023-05-15T00:33:37.712Z,6.3
2023-05-15T00:36:08.256Z,6.4
2023-05-15T00:38:38.840Z,6.3
2023-05-15T00:43:39.522Z,6.3
2023-05-15T00:46:10.081Z,6.3
2023-05-15T00:48:50.744Z,6.4
2023-05-15T00:51:21.345Z,6.4
2023-05-15T00:53:51.939Z,6.4
2023-05-15T00:56:22.692Z,6.3
2023-05-15T00:58:53.270Z,6.2
2023-05-15T01:01:23.848Z,6.3
2023-05-15T01:04:04.571Z,6.2
2023-05-15T01:06:35.157Z,6.2
2023-05-15T01:09:05.701Z,6.4
2023-05-15T01:11:36.398Z,6.5
2023-05-15T01:14:07.088Z,6.5
2023-05-15T01:16:37.702Z,6.5
2023-05-15T01:19:18.371Z,6.5
2023-05-15T01:24:19.217Z,6.5
2023-05-15T01:26:49.806Z,6.5
2023-05-15T01:29:20.356Z,6.5
2023-05-15T01:32:00.989Z,6.4
2023-05-15T01:34:31.780Z,6.4
2023-05-15T01:37:02.438Z,6.4
2023-05-15T01:39:33.065Z,6.4
2023-05-15T01:42:03.614Z,6.4
2023-05-15T01:44:34.215Z,6.4
2023-05-15T01:47:14.794Z,6.4
2023-05-15T01:49:45.416Z,6.4
2023-05-15T01:52:15.955Z,6.5
2023-05-15T01:54:46.523Z,6.5
2023-05-15T01:57:17.101Z,6.5
2023-05-15T01:59:47.710Z,6.5
2023-05-15T02:04:58.294Z,6.1
2023-05-15T02:07:28.822Z,6.0
2023-05-15T02:09:59.395Z,5.9
2023-05-15T02:12:39.954Z,5.8
2023-05-15T02:15:20.514Z,5.8
2023-05-15T02:17:51.093Z,5.8
2023-05-15T02:20:21.751Z,5.8
2023-05-15T02:22:52.301Z,5.8
2023-05-15T02:25:22.972Z,5.8
2023-05-15T02:27:53.737Z,5.9
2023-05-15T02:30:34.348Z,6.0
2023-05-15T02:33:04.950Z,6.0
2023-05-15T02:35:35.569Z,6.0
2023-05-15T02:38:06.130Z,5.9
2023-05-15T02:40:36.694Z,5.9
2023-05-15T02:45:47.287Z,5.9
2023-05-15T02:48:17.960Z,5.9
2023-05-15T02:50:48.557Z,5.8
2023-05-15T02:55:49.151Z,5.9
2023-05-15T02:58:19.717Z,6.0
2023-05-15T03:01:00.276Z,6.0
2023-05-15T03:03:31.057Z,6.0
2023-05-15T03:06:01.666Z,6.0
2023-05-15T03:08:32.205Z,6.0
2023-05-15T03:11:02.776Z,6.0
2023-05-15T03:13:33.323Z,6.0
2023-05-15T03:16:13.894Z,6.0
2023-05-15T03:18:44.580Z,6.0
2023-05-15T03:21:15.332Z,6.0
2023-05-15T03:29:02.266Z,5.9
2023-05-15T03:31:32.829Z,5.9
2023-05-15T03:34:03.544Z,6.0
2023-05-15T03:36:34.140Z,6.0
2023-05-15T03:39:04.705Z,6.0
2023-05-15T03:41:35.302Z,6.0
2023-05-15T03:44:15.868Z,6.2
2023-05-15T03:46:46.487Z,6.2
2023-05-15T03:49:17.181Z,6.2
2023-05-15T03:51:47.755Z,6.3
2023-05-15T03:54:18.464Z,6.2
2023-05-15T03:56:49.076Z,6.2
2023-05-15T03:59:29.635Z,6.1
2023-05-15T04:02:04.604Z,6.1
2023-05-15T04:06:56.152Z,6.0
2023-05-15T04:09:26.734Z,5.9
2023-05-15T04:11:57.371Z,6.0
2023-05-15T04:14:37.937Z,6.1
2023-05-15T04:17:08.530Z,6.0
2023-05-15T04:19:40.358Z,6.0
2023-05-15T04:22:11.525Z,6.0
2023-05-15T04:24:42.101Z,6.0
2023-05-15T04:27:12.691Z,6.0
2023-05-15T04:29:53.296Z,6.0
2023-05-15T04:32:23.950Z,6.1
2023-05-15T04:34:54.693Z,6.1
2023-05-15T04:37:25.239Z,6.1
2023-05-15T04:39:56.142Z,6.0
2023-05-15T04:42:38.814Z,6.0
2023-05-15T04:47:39.747Z,6.0
2023-05-15T04:50:10.494Z,6.0
2023-05-15T04:52:41.063Z,6.0
2023-05-15T04:55:11.632Z,6.0
2023-05-15T04:57:53.853Z,6.1
2023-05-15T05:00:24.417Z,6.2
2023-05-15T05:02:54.965Z,6.3
2023-05-15T05:05:25.851Z,6.4
2023-05-15T05:07:56.544Z,6.4
2023-05-15T05:10:27.133Z,6.5
2023-05-15T05:13:07.702Z,6.6
2023-05-15T05:15:38.324Z,6.7
2023-05-15T05:18:09.044Z,6.6
2023-05-15T05:20:39.688Z,6.5
2023-05-15T05:23:10.218Z,6.5
2023-05-15T05:28:20.798Z,6.6
2023-05-15T05:30:51.369Z,6.8
2023-05-15T05:33:22.314Z,6.8
2023-05-15T05:35:52.910Z,6.8
2023-05-15T05:38:23.454Z,7.0
2023-05-15T05:41:04.014Z,7.0
2023-05-15T05:43:34.572Z,7.1
2023-05-15T05:46:05.146Z,7.1
2023-05-15T05:48:45.732Z,7.1
2023-05-15T05:53:46.409Z,7.2
2023-05-15T05:56:26.997Z,7.3
2023-05-15T05:58:57.592Z,7.4
2023-05-15T06:01:28.163Z,7.3
2023-05-15T06:03:58.878Z,7.2
2023-05-15T06:08:59.593Z,7.6
2023-05-15T06:11:40.160Z,7.6
2023-05-15T06:14:10.722Z,7.7
2023-05-15T06:16:41.833Z,7.7
2023-05-15T06:19:12.520Z,7.6
2023-05-15T06:21:43.170Z,7.6
2023-05-15T06:24:13.725Z,7.6
2023-05-15T06:26:54.270Z,7.7
2023-05-15T06:29:24.876Z,7.7
2023-05-15T06:31:55.447Z,7.7
2023-05-15T06:34:26.047Z,7.7
2023-05-15T06:36:56.694Z,7.8
2023-05-15T06:39:37.264Z,7.9
2023-05-15T06:42:07.799Z,8.0
2023-05-15T06:44:38.380Z,8.2
2023-05-15T06:49:38.946Z,8.4
2023-05-15T06:52:09.498Z,8.7
2023-05-15T06:54:50.127Z,8.9
2023-05-15T06:57:20.693Z,9.0
2023-05-15T06:59:51.258Z,9.2
2023-05-15T07:02:21.847Z,9.4
2023-05-15T07:04:52.546Z,9.6
2023-05-15T07:07:23.287Z,9.8
2023-05-15T07:10:03.850Z,10.0
2023-05-15T07:12:34.910Z,10.1
2023-05-15T07:15:05.543Z,10.0
2023-05-15T07:17:36.478Z,10.1
2023-05-15T07:20:07.515Z,10.1
2023-05-15T07:22:48.303Z,10.0
2023-05-15T07:25:17.037Z,10.0
2023-05-15T07:30:18.209Z,10.0
2023-05-15T07:32:49.036Z,9.8
2023-05-15T07:35:19.794Z,10.0
2023-05-15T07:37:50.374Z,10.2
2023-05-15T07:40:31.006Z,10.2
2023-05-15T07:43:01.577Z,10.2
2023-05-15T07:45:32.187Z,10.1
2023-05-15T07:48:03.215Z,10.0
2023-05-15T07:50:33.808Z,9.9
2023-05-15T07:53:14.386Z,9.9
2023-05-15T07:55:45.118Z,9.7
2023-05-15T07:58:15.676Z,9.9
2023-05-15T08:00:46.231Z,9.9
2023-05-15T08:03:26.846Z,9.7
2023-05-15T08:05:47.730Z,9.9
2023-05-15T08:11:08.328Z,10.0
2023-05-15T08:13:38.926Z,10.0
2023-05-15T08:16:09.722Z,10.4
2023-05-15T08:18:40.406Z,10.4
2023-05-15T08:21:11.114Z,10.6
2023-05-15T08:23:51.655Z,10.5
2023-05-15T08:26:13.995Z,10.7
2023-05-15T08:28:54.536Z,10.8
2023-05-15T08:31:25.145Z,10.9
2023-05-15T08:33:55.859Z,11.2
2023-05-15T08:36:26.486Z,11.3
2023-05-15T08:38:59.417Z,10.9
2023-05-15T08:41:39.825Z,11.0
2023-05-15T08:44:00.987Z,11.0
2023-05-15T08:46:31.740Z,10.7
2023-05-15T08:51:32.499Z,10.9
2023-05-15T08:54:13.059Z,11.0
2023-05-15T08:56:43.692Z,11.4
2023-05-15T08:59:14.263Z,11.7
2023-05-15T09:01:44.837Z,12.0
2023-05-15T09:04:15.709Z,11.9
2023-05-15T09:06:56.300Z,12.0
2023-05-15T09:09:36.898Z,12.5
2023-05-15T09:14:37.461Z,12.7
2023-05-15T09:17:08.086Z,12.7
2023-05-15T09:19:38.721Z,12.7
2023-05-15T09:22:19.292Z,12.6
2023-05-15T09:24:49.851Z,12.4
2023-05-15T09:27:20.399Z,12.5
2023-05-15T09:32:21.059Z,12.7
2023-05-15T09:34:51.854Z,12.8
2023-05-15T09:37:32.448Z,13.6
2023-05-15T09:40:02.996Z,14.0
2023-05-15T09:42:33.556Z,14.3
2023-05-15T09:45:04.257Z,14.0
2023-05-15T09:47:35.314Z,14.1
2023-05-15T09:50:16.401Z,14.0
2023-05-15T09:52:47.024Z,14.6
2023-05-15T09:55:17.575Z,14.8
2023-05-15T09:57:48.150Z,14.6
2023-05-15T10:00:19.003Z,14.5
2023-05-15T10:02:49.106Z,14.8
2023-05-15T10:05:42.302Z,14.8
2023-05-15T10:08:03.751Z,14.5
2023-05-15T10:13:04.347Z,14.0
2023-05-15T10:15:34.965Z,13.8
2023-05-15T10:18:05.685Z,13.6
2023-05-15T10:20:46.287Z,13.2
2023-05-15T10:23:16.838Z,12.7
2023-05-15T10:25:47.401Z,12.4
2023-05-15T10:28:17.973Z,12.2
2023-05-15T10:30:48.559Z,12.3
2023-05-15T10:33:19.276Z,12.1
2023-05-15T10:35:59.899Z,11.2
2023-05-15T10:38:30.456Z,10.1
2023-05-15T10:41:15.557Z,9.9
2023-05-15T10:43:27.052Z,10.1
2023-05-15T10:45:57.635Z,10.1
2023-05-15T10:48:28.314Z,10.1
2023-05-15T10:53:38.933Z,10.2
2023-05-15T10:56:09.624Z,10.2
2023-05-15T10:58:40.396Z,10.3
2023-05-15T11:01:11.011Z,10.4
2023-05-15T11:03:53.205Z,10.5
2023-05-15T11:06:25.834Z,10.7
2023-05-15T11:08:56.485Z,11.1
2023-05-15T11:11:27.043Z,11.5
2023-05-15T11:13:57.616Z,11.8
2023-05-15T11:16:28.192Z,11.5
2023-05-15T11:19:08.950Z,11.7
2023-05-15T11:21:39.649Z,11.9
2023-05-15T11:24:10.219Z,12.2
2023-05-15T11:26:40.791Z,12.6
2023-05-15T11:29:11.436Z,12.5
2023-05-15T11:34:22.032Z,13.5
2023-05-15T11:36:52.673Z,13.8
2023-05-15T11:39:23.292Z,13.7
2023-05-15T11:41:53.854Z,13.9
2023-05-15T11:44:24.532Z,14.2
2023-05-15T11:46:55.148Z,14.6
2023-05-15T11:49:35.809Z,14.4
2023-05-15T11:52:16.368Z,14.4
2023-05-15T11:54:46.937Z,14.0
2023-05-15T11:57:17.492Z,13.7
2023-05-15T11:59:48.103Z,13.6
2023-05-15T12:02:18.649Z,13.4
2023-05-15T12:04:59.373Z,13.2
2023-05-15T12:07:30.129Z,13.2
2023-05-15T12:10:00.691Z,13.3
2023-05-15T12:15:01.491Z,13.4
2023-05-15T12:17:32.104Z,13.4
2023-05-15T12:20:13.003Z,13.5
2023-05-15T12:22:43.787Z,13.6
2023-05-15T12:25:14.355Z,13.5
2023-05-15T12:27:44.902Z,13.7
2023-05-15T12:30:15.466Z,14.3
2023-05-15T12:32:56.379Z,15.0
2023-05-15T12:35:27.082Z,15.8
2023-05-15T12:37:57.868Z,16.6
2023-05-15T12:40:28.446Z,16.8
2023-05-15T12:42:59.021Z,16.9
2023-05-15T12:45:29.561Z,17.6
2023-05-15T12:48:10.302Z,18.3
2023-05-15T12:50:40.955Z,18.2
2023-05-15T12:55:41.534Z,18.1
2023-05-15T12:58:12.107Z,18.0
2023-05-15T13:00:42.639Z,17.9
2023-05-15T13:03:24.186Z,18.5
2023-05-15T13:05:55.253Z,18.4
2023-05-15T13:08:25.804Z,18.2
2023-05-15T13:10:58.098Z,18.4
2023-05-15T13:13:28.710Z,18.6
2023-05-15T13:15:59.265Z,18.9
2023-05-15T13:18:40.895Z,19.0
2023-05-15T13:21:11.751Z,18.6
2023-05-15T13:23:42.332Z,17.5
2023-05-15T13:26:12.910Z,17.2
2023-05-15T13:28:43.767Z,16.9
2023-05-15T13:31:14.430Z,16.7
2023-05-15T13:36:25.288Z,16.8
2023-05-15T13:38:55.878Z,17.2
2023-05-15T13:41:26.481Z,17.5
2023-05-15T13:43:57.132Z,17.8
2023-05-15T13:46:37.727Z,17.6
2023-05-15T13:49:08.659Z,17.0
2023-05-15T13:51:39.232Z,16.6
2023-05-15T13:54:09.783Z,16.4
2023-05-15T13:56:40.376Z,16.2
2023-05-15T13:59:10.909Z,16.2
2023-05-15T14:01:51.571Z,16.2
2023-05-15T14:04:22.223Z,16.4
2023-05-15T14:06:52.870Z,16.3
2023-05-15T14:09:23.453Z,16.3
2023-05-15T14:11:54.019Z,16.0
2023-05-15T14:17:04.637Z,15.8
2023-05-15T14:19:35.342Z,15.5
2023-05-15T14:22:05.991Z,15.7
2023-05-15T14:24:36.548Z,15.6
2023-05-15T14:27:07.150Z,15.6
2023-05-15T14:29:37.829Z,15.5
2023-05-15T14:32:18.437Z,15.2
2023-05-15T14:34:49.151Z,15.1
2023-05-15T14:37:19.694Z,15.0
2023-05-15T14:39:50.282Z,15.0
2023-05-15T14:42:20.870Z,14.9
2023-05-15T14:44:51.456Z,14.8
2023-05-15T14:47:32.088Z,14.5
2023-05-15T14:50:02.833Z,14.1
2023-05-15T14:52:33.507Z,14.0
2023-05-15T14:57:34.096Z,13.4
2023-05-15T15:00:14.656Z,13.0
2023-05-15T15:02:45.485Z,12.8
2023-05-15T15:05:16.310Z,12.3
2023-05-15T15:07:46.855Z,12.0
2023-05-15T15:10:17.460Z,11.5
2023-05-15T15:12:48.181Z,10.8
2023-05-15T15:15:38.781Z,10.8
2023-05-15T15:18:09.539Z,10.8
2023-05-15T15:20:40.200Z,10.8
2023-05-15T15:23:10.738Z,10.6
2023-05-15T15:25:41.294Z,10.1
2023-05-15T15:28:11.873Z,9.9
2023-05-15T15:30:52.460Z,10.0
2023-05-15T15:33:23.069Z,10.2
2023-05-15T15:38:23.644Z,10.3
2023-05-15T15:40:54.313Z,10.5
2023-05-15T15:43:24.868Z,10.6
2023-05-15T15:46:05.463Z,10.8
2023-05-15T15:48:36.174Z,10.8
2023-05-15T15:51:06.731Z,10.8
2023-05-15T15:53:37.298Z,10.9
2023-05-15T15:56:07.844Z,10.9
2023-05-15T15:58:38.415Z,11.1
2023-05-15T16:01:19.034Z,11.1
2023-05-15T16:03:49.787Z,11.2
2023-05-15T16:06:20.565Z,11.2
2023-05-15T16:08:51.094Z,11.1
2023-05-15T16:14:01.660Z,11.7
2023-05-15T16:19:02.236Z,12.1
2023-05-15T16:21:32.982Z,12.1
2023-05-15T16:24:03.539Z,12.0
2023-05-15T16:26:34.123Z,11.8
2023-05-15T16:29:14.673Z,11.6
2023-05-15T16:31:45.256Z,11.5
2023-05-15T16:34:15.871Z,11.6
2023-05-15T16:36:46.431Z,11.3
2023-05-15T16:39:17.002Z,11.4
2023-05-15T16:41:47.568Z,11.3
2023-05-15T16:44:29.881Z,11.2
2023-05-15T16:47:00.469Z,11.2
2023-05-15T16:49:31.030Z,11.3
2023-05-15T16:52:04.634Z,11.7
2023-05-15T16:54:35.204Z,12.0
2023-05-15T16:59:45.762Z,12.4
2023-05-15T17:02:16.355Z,12.2
2023-05-15T17:04:47.316Z,12.0
2023-05-15T17:07:17.902Z,12.1
2023-05-15T17:09:48.456Z,12.0
2023-05-15T17:12:29.064Z,12.0
2023-05-15T17:14:59.625Z,12.4
2023-05-15T17:17:30.200Z,12.5
2023-05-15T17:20:02.505Z,12.3
2023-05-15T17:22:33.307Z,12.0
2023-05-15T17:25:03.851Z,11.9
2023-05-15T17:27:44.609Z,11.6
2023-05-15T17:30:15.191Z,11.5
2023-05-15T17:32:45.967Z,11.2
2023-05-15T17:35:16.724Z,11.1
2023-05-15T17:40:18.280Z,11.1
2023-05-15T17:42:58.822Z,11.0
2023-05-15T17:45:29.405Z,10.9
2023-05-15T17:48:00.146Z,10.9
2023-05-15T17:50:30.857Z,10.8
2023-05-15T17:53:01.419Z,10.8
2023-05-15T17:55:31.962Z,10.8
2023-05-15T17:58:12.535Z,10.8
2023-05-15T18:00:43.139Z,10.8
2023-05-15T18:03:13.812Z,11.0
2023-05-15T18:05:44.760Z,10.9
2023-05-15T18:08:15.316Z,10.9
2023-05-15T18:10:45.929Z,10.8
2023-05-15T18:13:31.297Z,10.8
2023-05-15T18:16:01.926Z,10.6
2023-05-15T18:21:02.793Z,10.4
2023-05-15T18:23:33.351Z,10.3
2023-05-15T18:26:13.926Z,10.2
2023-05-15T18:28:44.502Z,10.3
2023-05-15T18:31:15.125Z,10.2
2023-05-15T18:33:45.887Z,10.0
2023-05-15T18:36:16.481Z,9.9
2023-05-15T18:38:47.018Z,9.8
2023-05-15T18:41:27.587Z,9.7
2023-05-15T18:43:58.141Z,9.6
2023-05-15T18:46:28.784Z,9.6
2023-05-15T18:48:59.460Z,9.6
2023-05-15T18:51:30.044Z,9.5
2023-05-15T18:54:00.574Z,9.5
2023-05-15T18:56:43.094Z,9.5
2023-05-15T19:01:43.885Z,9.4
2023-05-15T19:04:14.718Z,9.5
2023-05-15T19:06:45.343Z,9.4
2023-05-15T19:09:25.888Z,9.4
2023-05-15T19:11:56.488Z,9.4
2023-05-15T19:14:27.082Z,9.4
2023-05-15T19:16:57.664Z,9.3
2023-05-15T19:19:28.380Z,9.3
2023-05-15T19:21:58.959Z,9.2
2023-05-15T19:24:39.573Z,9.2
2023-05-15T19:27:10.143Z,9.2
2023-05-15T19:29:42.285Z,9.2
2023-05-15T19:32:13.501Z,9.2
2023-05-15T19:34:44.386Z,9.2
2023-05-15T19:37:14.929Z,9.1
2023-05-15T19:42:25.474Z,9.0
2023-05-15T19:44:56.049Z,9.0
2023-05-15T19:47:26.675Z,8.9
2023-05-15T19:49:57.445Z,8.8
2023-05-15T19:52:28.001Z,8.8
2023-05-15T19:55:08.806Z,9.0
2023-05-15T19:57:39.363Z,8.9
2023-05-15T20:00:09.968Z,9.0
2023-05-15T20:02:40.587Z,9.0
2023-05-15T20:05:11.501Z,9.0
2023-05-15T20:07:42.047Z,9.0
2023-05-15T20:10:22.673Z,9.0
2023-05-15T20:12:53.260Z,9.0
2023-05-15T20:15:23.862Z,9.0
2023-05-15T20:17:54.459Z,9.0
2023-05-15T20:23:05.208Z,8.9
2023-05-15T20:25:35.779Z,8.9
2023-05-15T20:28:06.329Z,8.9
2023-05-15T20:30:36.942Z,8.9
2023-05-15T20:33:07.707Z,8.8
2023-05-15T20:35:38.488Z,8.8
2023-05-15T20:38:19.047Z,8.8
2023-05-15T20:40:49.614Z,8.8
2023-05-15T20:43:20.159Z,8.7
2023-05-15T20:45:50.755Z,8.6
2023-05-15T20:48:21.534Z,8.6
2023-05-15T20:50:52.124Z,8.5
2023-05-15T20:53:32.721Z,8.5
2023-05-15T20:56:03.322Z,8.4
2023-05-15T20:58:33.898Z,8.2
2023-05-15T21:03:34.542Z,8.0
2023-05-15T21:06:05.395Z,8.0
2023-05-15T21:08:45.987Z,8.0
2023-05-15T21:11:16.523Z,8.0
2023-05-15T21:13:57.090Z,8.0
2023-05-15T21:16:27.661Z,7.9
2023-05-15T21:18:58.326Z,7.8
2023-05-15T21:21:38.991Z,7.9
2023-05-15T21:24:09.533Z,7.8
2023-05-15T21:26:40.114Z,7.8
2023-05-15T21:29:10.679Z,7.7
2023-05-15T21:31:41.285Z,7.8
2023-05-15T21:34:11.895Z,7.7
2023-05-15T21:36:52.499Z,7.9
2023-05-15T21:39:23.081Z,7.9
2023-05-15T21:44:23.641Z,7.6
2023-05-15T21:46:54.344Z,7.6
2023-05-15T21:49:25.057Z,7.5
2023-05-15T21:52:05.619Z,7.4
2023-05-15T21:54:36.185Z,7.3
2023-05-15T21:57:06.761Z,7.3
2023-05-15T21:59:37.345Z,7.3
2023-05-15T22:02:07.977Z,7.2
2023-05-15T22:04:38.642Z,7.2
2023-05-15T22:07:19.225Z,7.2
2023-05-15T22:09:49.767Z,7.1
2023-05-15T22:12:20.323Z,7.1
2023-05-15T22:17:17.975Z,6.8
2023-05-15T22:19:58.686Z,6.8
2023-05-15T22:24:59.279Z,6.7
2023-05-15T22:27:29.851Z,6.6
2023-05-15T22:30:00.425Z,6.4
2023-05-15T22:32:41.005Z,6.4
2023-05-15T22:35:21.868Z,6.2
2023-05-15T22:37:52.414Z,6.1
2023-05-15T22:40:23.031Z,6.1
2023-05-15T22:42:53.566Z,6.1
2023-05-15T22:45:24.144Z,6.2
2023-05-15T22:47:54.797Z,6.2
2023-05-15T22:50:35.613Z,6.2
2023-05-15T22:53:06.148Z,6.1
2023-05-15T22:55:36.891Z,6.0
2023-05-15T22:58:07.802Z,6.2
2023-05-15T23:00:38.413Z,6.2
2023-05-15T23:05:49.221Z,6.2
2023-05-15T23:08:19.785Z,6.1
2023-05-15T23:10:50.385Z,6.0
2023-05-15T23:13:20.951Z,6.0
2023-05-15T23:15:51.532Z,6.0
2023-05-15T23:18:22.281Z,6.0
2023-05-15T23:21:02.988Z,6.0
2023-05-15T23:23:33.575Z,5.9
2023-05-15T23:26:04.144Z,5.8
2023-05-15T23:28:34.709Z,5.8
2023-05-15T23:31:05.298Z,5.8
2023-05-15T23:33:46.072Z,5.9
2023-05-15T23:36:16.648Z,5.9
2023-05-15T23:38:47.235Z,6.0
2023-05-15T23:41:17.852Z,6.0
2023-05-15T23:46:18.495Z,5.9
2023-05-15T23:48:59.242Z,5.9
2023-05-15T23:51:29.807Z,6.0
2023-05-15T23:54:00.403Z,6.0
2023-05-15T23:56:30.952Z,6.1
2023-05-15T23:59:01.520Z,6.2
